^^
Your Local Weather - Clay, NY Station Historical Data
Daily Summary for February 6, 2018 Units:  English    Metric   Both
« Previous Day
Next Day »
Daily Weekly Monthly Yearly Custom
  High: Low: Average:
Temperature: 27.6 °F 9.1 °F 18.8 °F
Dew Point: 18.8 °F 4.7 °F 12.5 °F
Humidity: 89% 61% 77%
Wind Speed: 5.0mph 0.0mph 1.2mph
Wind Gust: 10.0mph - -
Wind- - WSW
Pressure: 30.49 in 30.19 in -
Precipitation: 0.00 in    
Historical Graphs
 
 
Tabular Data for February 6, 2018
Time Temperature Dew Point Pressure Wind Wind Speed Wind Gust Humidity Rainfall Rate (Hourly) solar
00:00 12.4 °F 8.2 °F 30.22 in Calm     83% 0.00 in 0 W/m2
00:06 12.4 °F 8.2 °F 30.23 in Calm     83% 0.00 in 0 W/m2
00:12 12.5 °F 8.3 °F 30.22 in Calm     83% 0.00 in 0 W/m2
00:18 12.7 °F 8.5 °F 30.22 in Calm     83% 0.00 in 0 W/m2
00:24 12.9 °F 8.7 °F 30.22 in Calm     83% 0.00 in 0 W/m2
00:30 13.0 °F 8.8 °F 30.21 in Calm     83% 0.00 in 0 W/m2
00:36 13.2 °F 9.0 °F 30.22 in Calm     83% 0.00 in 0 W/m2
00:42 13.4 °F 9.2 °F 30.22 in Calm     83% 0.00 in 0 W/m2
00:48 13.9 °F 9.7 °F 30.23 in Calm   2.0 mph 83% 0.00 in 0 W/m2
00:54 14.1 °F 9.9 °F 30.23 in West 1.0 mph 3.0 mph 83% 0.00 in 0 W/m2
01:00 14.4 °F 9.9 °F 30.23 in West 1.0 mph 1.0 mph 82% 0.00 in 0 W/m2
01:06 14.3 °F 9.5 °F 30.23 in West 1.0 mph 1.0 mph 81% 0.00 in 0 W/m2
01:12 14.4 °F 9.6 °F 30.23 in Calm     81% 0.00 in 0 W/m2
02:24 14.6 °F 9.6 °F 30.21 in Calm   1.0 mph 80% 0.00 in 0 W/m2
02:30 14.6 °F 9.6 °F 30.21 in SSE 1.0 mph 1.0 mph 80% 0.00 in 0 W/m2
02:36 14.6 °F 9.6 °F 30.21 in SSE 1.0 mph 1.0 mph 80% 0.00 in 0 W/m2
02:42 14.5 °F 9.5 °F 30.21 in SSE 1.0 mph 1.0 mph 80% 0.00 in 0 W/m2
02:48 14.5 °F 9.7 °F 30.21 in SSE 1.0 mph 1.0 mph 81% 0.00 in 0 W/m2
02:54 14.4 °F 9.6 °F 30.21 in Calm   2.0 mph 81% 0.00 in 0 W/m2
03:00 14.4 °F 9.9 °F 30.21 in Calm     82% 0.00 in 0 W/m2
03:06 14.4 °F 9.9 °F 30.21 in Calm     82% 0.00 in 0 W/m2
03:12 14.4 °F 10.2 °F 30.21 in Calm     83% 0.00 in 0 W/m2
03:18 14.5 °F 10.3 °F 30.21 in Calm     83% 0.00 in 0 W/m2
03:24 14.5 °F 10.5 °F 30.21 in Calm     84% 0.00 in 0 W/m2
03:30 14.5 °F 10.5 °F 30.20 in Calm     84% 0.00 in 0 W/m2
03:36 14.5 °F 10.5 °F 30.20 in Calm     84% 0.00 in 0 W/m2
03:42 14.5 °F 10.8 °F 30.20 in Calm     85% 0.00 in 0 W/m2
03:48 14.6 °F 10.9 °F 30.20 in Calm     85% 0.00 in 0 W/m2
03:54 14.6 °F 10.9 °F 30.20 in Calm     85% 0.00 in 0 W/m2
04:04 14.6 °F 11.2 °F 30.19 in Calm     86% 0.00 in 0 W/m2
04:10 14.7 °F 11.3 °F 30.19 in Calm     86% 0.00 in 0 W/m2
04:16 14.7 °F 11.3 °F 30.19 in Calm   1.0 mph 86% 0.00 in 0 W/m2
04:22 14.8 °F 11.4 °F 30.19 in Calm     86% 0.00 in 0 W/m2
04:28 14.9 °F 11.5 °F 30.19 in Calm     86% 0.00 in 0 W/m2
04:34 15.0 °F 11.8 °F 30.19 in Calm     87% 0.00 in 0 W/m2
04:40 15.0 °F 11.8 °F 30.20 in Calm     87% 0.00 in 0 W/m2
04:46 15.1 °F 11.9 °F 30.20 in Calm     87% 0.00 in 0 W/m2
04:52 15.2 °F 12.0 °F 30.20 in Calm     87% 0.00 in 0 W/m2
04:58 15.2 °F 12.0 °F 30.20 in Calm     87% 0.00 in 0 W/m2
05:04 15.2 °F 12.0 °F 30.20 in Calm     87% 0.00 in 0 W/m2
05:10 15.2 °F 12.0 °F 30.20 in Calm     87% 0.00 in 0 W/m2
05:16 15.3 °F 12.1 °F 30.20 in Calm   1.0 mph 87% 0.00 in 0 W/m2
05:22 15.3 °F 12.1 °F 30.20 in Calm     87% 0.00 in 0 W/m2
05:28 15.3 °F 12.1 °F 30.21 in Calm     87% 0.00 in 0 W/m2
05:34 15.4 °F 12.2 °F 30.21 in Calm     87% 0.00 in 0 W/m2
05:40 15.4 °F 12.2 °F 30.21 in Calm     87% 0.00 in 0 W/m2
05:46 15.4 °F 12.5 °F 30.21 in Calm     88% 0.00 in 0 W/m2
05:52 15.5 °F 12.3 °F 30.21 in Calm     87% 0.00 in 0 W/m2
05:58 15.5 °F 12.3 °F 30.21 in Calm     87% 0.00 in 0 W/m2
06:04 15.5 °F 12.3 °F 30.21 in Calm     87% 0.00 in 0 W/m2
06:10 15.5 °F 12.6 °F 30.22 in Calm     88% 0.00 in 0 W/m2
06:16 15.6 °F 12.7 °F 30.22 in Calm     88% 0.00 in 0 W/m2
06:22 15.6 °F 12.7 °F 30.23 in Calm     88% 0.00 in 0 W/m2
06:28 15.7 °F 12.8 °F 30.23 in Calm     88% 0.00 in 0 W/m2
06:34 15.7 °F 12.8 °F 30.23 in Calm     88% 0.00 in 0 W/m2
06:40 15.8 °F 12.9 °F 30.24 in Calm     88% 0.00 in 0 W/m2
06:46 15.9 °F 13.0 °F 30.24 in Calm     88% 0.00 in 0 W/m2
06:52 15.9 °F 13.0 °F 30.24 in Calm     88% 0.00 in 0 W/m2
06:58 15.9 °F 13.0 °F 30.24 in Calm     88% 0.00 in 0 W/m2
07:04 15.9 °F 13.0 °F 30.25 in Calm     88% 0.00 in 0 W/m2
07:10 15.9 °F 13.0 °F 30.25 in Calm     88% 0.00 in 0 W/m2
07:16 16.0 °F 13.1 °F 30.25 in Calm     88% 0.00 in 0 W/m2
07:22 16.1 °F 13.2 °F 30.25 in Calm     88% 0.00 in 0 W/m2
07:28 16.2 °F 13.3 °F 30.26 in Calm     88% 0.00 in 0 W/m2
07:34 16.3 °F 13.4 °F 30.26 in Calm     88% 0.00 in 0 W/m2
07:40 16.4 °F 13.5 °F 30.26 in Calm     88% 0.00 in 5 W/m2
07:46 16.5 °F 13.6 °F 30.26 in Calm     88% 0.00 in 7 W/m2
07:52 16.8 °F 14.1 °F 30.26 in Calm     89% 0.00 in 16 W/m2
07:58 17.5 °F 14.8 °F 30.26 in Calm     89% 0.00 in 21 W/m2
08:04 18.2 °F 15.5 °F 30.26 in Calm   1.0 mph 89% 0.00 in 28 W/m2
08:10 18.8 °F 16.1 °F 30.27 in SSE 1.0 mph 1.0 mph 89% 0.00 in 30 W/m2
08:16 19.3 °F 16.6 °F 30.27 in SSE 1.0 mph 3.0 mph 89% 0.00 in 28 W/m2
08:22 19.6 °F 16.9 °F 30.27 in South 1.0 mph 1.0 mph 89% 0.00 in 30 W/m2
08:28 19.9 °F 17.2 °F 30.27 in SSW 1.0 mph 2.0 mph 89% 0.00 in 32 W/m2
08:34 20.0 °F 17.3 °F 30.27 in SSW 2.0 mph 3.0 mph 89% 0.00 in 35 W/m2
08:40 20.2 °F 17.5 °F 30.27 in SSW 1.0 mph 3.0 mph 89% 0.00 in 39 W/m2
08:46 20.5 °F 17.5 °F 30.27 in SSW 1.0 mph 3.0 mph 88% 0.00 in 44 W/m2
08:52 20.7 °F 17.7 °F 30.27 in SW 2.0 mph 3.0 mph 88% 0.00 in 47 W/m2
08:58 20.9 °F 17.9 °F 30.27 in SW 1.0 mph 3.0 mph 88% 0.00 in 49 W/m2
09:04 21.1 °F 18.1 °F 30.27 in SW 2.0 mph 3.0 mph 88% 0.00 in 56 W/m2
09:10 21.3 °F 18.0 °F 30.27 in SSW 2.0 mph 2.0 mph 87% 0.00 in 62 W/m2
09:16 21.5 °F 18.2 °F 30.27 in SW 3.0 mph 5.0 mph 87% 0.00 in 63 W/m2
09:22 21.8 °F 18.3 °F 30.27 in SW 3.0 mph 6.0 mph 86% 0.00 in 76 W/m2
09:28 22.1 °F 18.3 °F 30.28 in SSW 3.0 mph 6.0 mph 85% 0.00 in 79 W/m2
09:34 22.4 °F 18.6 °F 30.28 in SW 3.0 mph 5.0 mph 85% 0.00 in 81 W/m2
09:40 22.7 °F 18.6 °F 30.28 in SW 2.0 mph 2.0 mph 84% 0.00 in 90 W/m2
09:46 22.9 °F 18.8 °F 30.28 in WSW 2.0 mph 4.0 mph 84% 0.00 in 91 W/m2
09:52 23.2 °F 18.8 °F 30.29 in SW 3.0 mph 3.0 mph 83% 0.00 in 81 W/m2
09:58 23.3 °F 18.6 °F 30.29 in SW 3.0 mph 4.0 mph 82% 0.00 in 72 W/m2
10:04 23.3 °F 18.3 °F 30.29 in SW 3.0 mph 6.0 mph 81% 0.00 in 76 W/m2
10:10 23.5 °F 18.5 °F 30.29 in South 2.0 mph 2.0 mph 81% 0.00 in 142 W/m2
10:16 23.8 °F 18.5 °F 30.29 in SW 3.0 mph 3.0 mph 80% 0.00 in 137 W/m2
10:22 23.9 °F 18.0 °F 30.29 in West 4.0 mph 5.0 mph 78% 0.00 in 123 W/m2
10:28 24.0 °F 17.5 °F 30.29 in SSW 4.0 mph 6.0 mph 76% 0.00 in 141 W/m2
10:34 24.3 °F 18.1 °F 30.29 in SW 4.0 mph 4.0 mph 77% 0.00 in 137 W/m2
10:40 24.3 °F 17.5 °F 30.30 in SW 3.0 mph 3.0 mph 75% 0.00 in 105 W/m2
10:46 24.4 °F 17.6 °F 30.30 in WSW 4.0 mph 5.0 mph 75% 0.00 in 163 W/m2
10:52 24.5 °F 17.1 °F 30.31 in WSW 3.0 mph 6.0 mph 73% 0.00 in 127 W/m2
10:58 24.6 °F 17.2 °F 30.30 in SSW 5.0 mph 7.0 mph 73% 0.00 in 295 W/m2
11:04 24.9 °F 17.1 °F 30.31 in SW 5.0 mph 7.0 mph 72% 0.00 in 336 W/m2
11:10 25.6 °F 17.8 °F 30.30 in West 3.0 mph 5.0 mph 72% 0.00 in 380 W/m2
11:16 25.3 °F 16.5 °F 30.30 in West 4.0 mph 10.0 mph 69% 0.00 in 410 W/m2
11:22 25.5 °F 16.7 °F 30.31 in WSW 5.0 mph 7.0 mph 69% 0.00 in 318 W/m2
11:28 26.0 °F 16.9 °F 30.30 in West 3.0 mph 7.0 mph 68% 0.00 in 482 W/m2
11:34 26.6 °F 17.5 °F 30.30 in West 3.0 mph 5.0 mph 68% 0.00 in 424 W/m2
11:40 27.6 °F 17.4 °F 30.30 in West 3.0 mph 3.0 mph 65% 0.00 in 517 W/m2
11:46 27.1 °F 16.5 °F 30.30 in WNW 3.0 mph 6.0 mph 64% 0.00 in 455 W/m2
11:52 26.2 °F 16.0 °F 30.31 in SW 4.0 mph 9.0 mph 65% 0.00 in 221 W/m2
11:58 25.8 °F 16.0 °F 30.31 in West 4.0 mph 9.0 mph 66% 0.00 in 216 W/m2
12:04 26.0 °F 16.2 °F 30.31 in WNW 3.0 mph 4.0 mph 66% 0.00 in 178 W/m2
12:10 25.7 °F 15.6 °F 30.31 in West 3.0 mph 4.0 mph 65% 0.00 in 141 W/m2
12:16 25.6 °F 15.5 °F 30.31 in WSW 4.0 mph 4.0 mph 65% 0.00 in 188 W/m2
12:22 25.6 °F 15.5 °F 30.32 in WNW 4.0 mph 8.0 mph 65% 0.00 in 162 W/m2
12:28 25.4 °F 15.3 °F 30.31 in WSW 4.0 mph 8.0 mph 65% 0.00 in 155 W/m2
12:34 25.4 °F 15.6 °F 30.32 in West 5.0 mph 7.0 mph 66% 0.00 in 135 W/m2
12:40 25.4 °F 15.6 °F 30.32 in WSW 4.0 mph 4.0 mph 66% 0.00 in 127 W/m2
12:46 25.5 °F 15.7 °F 30.32 in West 2.0 mph 8.0 mph 66% 0.00 in 139 W/m2
12:52 25.5 °F 15.7 °F 30.32 in NW 3.0 mph 4.0 mph 66% 0.00 in 132 W/m2
12:58 25.4 °F 15.6 °F 30.32 in NW 3.0 mph 5.0 mph 66% 0.00 in 132 W/m2
13:04 25.4 °F 15.6 °F 30.32 in WNW 3.0 mph 5.0 mph 66% 0.00 in 123 W/m2
13:10 25.4 °F 15.6 °F 30.32 in West 3.0 mph 3.0 mph 66% 0.00 in 130 W/m2
13:16 25.4 °F 15.3 °F 30.32 in West 2.0 mph 3.0 mph 65% 0.00 in 137 W/m2
13:22 25.6 °F 15.5 °F 30.32 in WSW 2.0 mph 7.0 mph 65% 0.00 in 149 W/m2
13:28 25.5 °F 15.4 °F 30.32 in WSW 4.0 mph 7.0 mph 65% 0.00 in 179 W/m2
13:34 25.5 °F 15.7 °F 30.32 in WSW 4.0 mph 5.0 mph 66% 0.00 in 190 W/m2
13:40 25.7 °F 15.9 °F 30.32 in WNW 3.0 mph 3.0 mph 66% 0.00 in 199 W/m2
13:46 25.7 °F 15.9 °F 30.32 in NW 3.0 mph 3.0 mph 66% 0.00 in 174 W/m2
13:52 25.6 °F 15.8 °F 30.32 in West 4.0 mph 4.0 mph 66% 0.00 in 227 W/m2
13:58 25.6 °F 15.8 °F 30.33 in WNW 4.0 mph 9.0 mph 66% 0.00 in 211 W/m2
14:04 25.7 °F 15.6 °F 30.33 in NW 3.0 mph 5.0 mph 65% 0.00 in 172 W/m2
14:10 25.7 °F 15.6 °F 30.32 in WSW 3.0 mph 6.0 mph 65% 0.00 in 272 W/m2
14:16 26.3 °F 15.8 °F 30.33 in WNW 4.0 mph 6.0 mph 64% 0.00 in 207 W/m2
14:22 26.1 °F 15.6 °F 30.32 in West 3.0 mph 3.0 mph 64% 0.00 in 246 W/m2
14:28 26.2 °F 15.3 °F 30.33 in NW 3.0 mph 7.0 mph 63% 0.00 in 193 W/m2
14:34 25.9 °F 15.0 °F 30.33 in West 4.0 mph 4.0 mph 63% 0.00 in 171 W/m2
14:40 25.8 °F 15.3 °F 30.33 in SW 4.0 mph 8.0 mph 64% 0.00 in 283 W/m2
14:46 26.4 °F 15.5 °F 30.33 in WSW 3.0 mph 8.0 mph 63% 0.00 in 192 W/m2
14:52 25.9 °F 14.7 °F 30.33 in West 4.0 mph 7.0 mph 62% 0.00 in 142 W/m2
14:58 25.8 °F 14.9 °F 30.34 in WSW 4.0 mph 7.0 mph 63% 0.00 in 123 W/m2
15:04 25.7 °F 14.8 °F 30.34 in West 3.0 mph 5.0 mph 63% 0.00 in 148 W/m2
15:10 25.7 °F 15.2 °F 30.35 in WSW 4.0 mph 4.0 mph 64% 0.00 in 135 W/m2
15:16 25.7 °F 15.2 °F 30.35 in WSW 4.0 mph 5.0 mph 64% 0.00 in 113 W/m2
15:22 25.7 °F 14.8 °F 30.35 in WNW 3.0 mph 3.0 mph 63% 0.00 in 116 W/m2
15:28 25.7 °F 14.8 °F 30.35 in WNW 3.0 mph 4.0 mph 63% 0.00 in 128 W/m2
15:34 25.8 °F 14.9 °F 30.35 in NW 2.0 mph 3.0 mph 63% 0.00 in 120 W/m2
15:40 25.9 °F 14.3 °F 30.36 in WNW 3.0 mph 4.0 mph 61% 0.00 in 132 W/m2
15:46 25.9 °F 14.7 °F 30.37 in NW 3.0 mph 4.0 mph 62% 0.00 in 81 W/m2
15:52 25.5 °F 14.6 °F 30.38 in NNW 3.0 mph 3.0 mph 63% 0.00 in 63 W/m2
15:58 25.3 °F 14.5 °F 30.38 in NNW 3.0 mph 3.0 mph 63% 0.00 in 62 W/m2
16:04 25.2 °F 14.4 °F 30.39 in WNW 3.0 mph 3.0 mph 63% 0.00 in 47 W/m2
16:10 25.1 °F 14.3 °F 30.39 in NNW 2.0 mph 2.0 mph 63% 0.00 in 47 W/m2
16:16 25.1 °F 14.3 °F 30.40 in NNW 2.0 mph 3.0 mph 63% 0.00 in 47 W/m2
16:22 25.1 °F 14.3 °F 30.40 in NW 3.0 mph 4.0 mph 63% 0.00 in 51 W/m2
16:28 25.2 °F 13.6 °F 30.40 in NW 3.0 mph 4.0 mph 61% 0.00 in 74 W/m2
16:34 25.2 °F 13.6 °F 30.40 in NW 2.0 mph 3.0 mph 61% 0.00 in 60 W/m2
16:40 25.1 °F 13.5 °F 30.40 in West 2.0 mph 3.0 mph 61% 0.00 in 54 W/m2
16:46 24.9 °F 13.7 °F 30.40 in WNW 2.0 mph 3.0 mph 62% 0.00 in 46 W/m2
16:52 24.7 °F 13.5 °F 30.40 in WNW 2.0 mph 4.0 mph 62% 0.00 in 39 W/m2
16:58 24.5 °F 13.3 °F 30.40 in West 2.0 mph 4.0 mph 62% 0.00 in 28 W/m2
17:04 24.2 °F 13.0 °F 30.41 in West 1.0 mph 2.0 mph 62% 0.00 in 23 W/m2
17:10 24.0 °F 13.2 °F 30.41 in West 1.0 mph 3.0 mph 63% 0.00 in 14 W/m2
17:16 23.7 °F 12.9 °F 30.41 in West 1.0 mph 3.0 mph 63% 0.00 in 7 W/m2
17:22 23.4 °F 12.6 °F 30.41 in West 1.0 mph 1.0 mph 63% 0.00 in 5 W/m2
17:28 23.2 °F 12.5 °F 30.41 in Calm   1.0 mph 63% 0.00 in 0 W/m2
17:34 22.7 °F 12.3 °F 30.42 in Calm     64% 0.00 in 0 W/m2
17:40 22.2 °F 11.9 °F 30.42 in Calm     64% 0.00 in 0 W/m2
17:46 21.7 °F 11.7 °F 30.42 in Calm     65% 0.00 in 0 W/m2
17:52 21.1 °F 11.5 °F 30.42 in Calm     66% 0.00 in 0 W/m2
17:58 20.4 °F 11.2 °F 30.43 in Calm     67% 0.00 in 0 W/m2
18:04 19.9 °F 11.0 °F 30.43 in Calm     68% 0.00 in 0 W/m2
18:10 19.5 °F 11.0 °F 30.43 in Calm     69% 0.00 in 0 W/m2
18:16 19.3 °F 11.1 °F 30.44 in Calm     70% 0.00 in 0 W/m2
18:22 19.0 °F 10.8 °F 30.44 in Calm     70% 0.00 in 0 W/m2
18:28 18.5 °F 10.7 °F 30.44 in Calm     71% 0.00 in 0 W/m2
18:34 17.9 °F 10.1 °F 30.44 in Calm     71% 0.00 in 0 W/m2
18:40 17.4 °F 9.9 °F 30.45 in Calm     72% 0.00 in 0 W/m2
18:46 16.8 °F 9.3 °F 30.45 in Calm     72% 0.00 in 0 W/m2
18:52 16.2 °F 9.1 °F 30.46 in Calm     73% 0.00 in 0 W/m2
18:58 15.6 °F 8.8 °F 30.46 in Calm     74% 0.00 in 0 W/m2
19:04 15.2 °F 8.4 °F 30.46 in Calm     74% 0.00 in 0 W/m2
19:10 14.8 °F 8.3 °F 30.46 in Calm     75% 0.00 in 0 W/m2
19:16 14.5 °F 8.0 °F 30.46 in Calm     75% 0.00 in 0 W/m2
19:22 13.9 °F 7.7 °F 30.46 in Calm     76% 0.00 in 0 W/m2
19:28 13.5 °F 7.3 °F 30.47 in Calm     76% 0.00 in 0 W/m2
19:34 13.2 °F 7.3 °F 30.48 in Calm     77% 0.00 in 0 W/m2
19:40 13.1 °F 7.5 °F 30.48 in Calm     78% 0.00 in 0 W/m2
19:46 13.0 °F 7.7 °F 30.48 in Calm     79% 0.00 in 0 W/m2
19:52 13.1 °F 7.8 °F 30.48 in Calm     79% 0.00 in 0 W/m2
19:58 13.4 °F 8.4 °F 30.48 in Calm     80% 0.00 in 0 W/m2
20:04 13.8 °F 9.0 °F 30.48 in Calm     81% 0.00 in 0 W/m2
20:10 13.9 °F 9.1 °F 30.48 in Calm     81% 0.00 in 0 W/m2
20:16 13.9 °F 9.1 °F 30.49 in Calm     81% 0.00 in 0 W/m2
20:22 14.0 °F 9.2 °F 30.49 in Calm     81% 0.00 in 0 W/m2
20:28 14.2 °F 9.4 °F 30.48 in Calm     81% 0.00 in 0 W/m2
20:34 14.3 °F 9.5 °F 30.49 in Calm     81% 0.00 in 0 W/m2
20:40 14.3 °F 9.5 °F 30.49 in Calm     81% 0.00 in 0 W/m2
20:46 14.3 °F 9.5 °F 30.49 in Calm     81% 0.00 in 0 W/m2
20:52 14.6 °F 9.6 °F 30.49 in Calm     80% 0.00 in 0 W/m2
20:58 15.0 °F 9.9 °F 30.49 in Calm     80% 0.00 in 0 W/m2
21:04 15.2 °F 10.1 °F 30.49 in Calm     80% 0.00 in 0 W/m2
21:10 15.4 °F 10.1 °F 30.49 in Calm     79% 0.00 in 0 W/m2
21:16 15.7 °F 10.3 °F 30.49 in Calm     79% 0.00 in 0 W/m2
21:22 16.0 °F 10.3 °F 30.49 in Calm     78% 0.00 in 0 W/m2
21:28 16.0 °F 9.8 °F 30.49 in Calm     76% 0.00 in 0 W/m2
21:34 16.6 °F 10.3 °F 30.49 in Calm   1.0 mph 76% 0.00 in 0 W/m2
21:40 17.2 °F 10.6 °F 30.48 in Calm     75% 0.00 in 0 W/m2
21:46 17.3 °F 10.1 °F 30.49 in Calm     73% 0.00 in 0 W/m2
21:52 16.8 °F 9.3 °F 30.49 in Calm     72% 0.00 in 0 W/m2
21:58 16.1 °F 8.7 °F 30.48 in Calm     72% 0.00 in 0 W/m2
22:04 15.2 °F 8.1 °F 30.48 in Calm     73% 0.00 in 0 W/m2
22:10 14.2 °F 7.4 °F 30.48 in Calm     74% 0.00 in 0 W/m2
22:16 13.6 °F 7.1 °F 30.48 in Calm     75% 0.00 in 0 W/m2
22:22 13.2 °F 6.8 °F 30.48 in Calm     75% 0.00 in 0 W/m2
22:28 12.8 °F 6.7 °F 30.48 in Calm     76% 0.00 in 0 W/m2
22:34 12.5 °F 6.7 °F 30.49 in Calm     77% 0.00 in 0 W/m2
22:40 12.3 °F 6.7 °F 30.49 in Calm     78% 0.00 in 0 W/m2
22:46 12.1 °F 6.6 °F 30.49 in Calm     78% 0.00 in 0 W/m2
22:52 11.9 °F 6.4 °F 30.49 in Calm     78% 0.00 in 0 W/m2
22:58 11.5 °F 6.2 °F 30.49 in Calm     79% 0.00 in 0 W/m2
23:04 11.3 °F 6.1 °F 30.48 in Calm     79% 0.00 in 0 W/m2
23:10 11.1 °F 5.9 °F 30.48 in Calm     79% 0.00 in 0 W/m2
23:16 10.6 °F 5.6 °F 30.48 in Calm     80% 0.00 in 0 W/m2
23:22 10.3 °F 5.4 °F 30.49 in Calm     80% 0.00 in 0 W/m2
23:28 10.1 °F 5.4 °F 30.49 in Calm     81% 0.00 in 0 W/m2
23:34 9.8 °F 5.1 °F 30.49 in Calm   1.0 mph 81% 0.00 in 0 W/m2
23:40 9.4 °F 4.7 °F 30.49 in Calm     81% 0.00 in 0 W/m2
23:46 9.3 °F 4.9 °F 30.49 in Calm     82% 0.00 in 0 W/m2
23:52 9.2 °F 4.8 °F 30.49 in Calm     82% 0.00 in 0 W/m2
23:58 9.1 °F 4.7 °F 30.49 in Calm     82% 0.00 in 0 W/m2
Country Meadow, Clay, NY, USA
Compliments of Weather Underground - 2 mb